createdAt,value
2018-06-28T00:00:51.971Z,19.09
2018-06-28T00:01:51.984Z,18.90
2018-06-28T00:02:51.959Z,18.86
2018-06-28T00:03:51.944Z,18.69
2018-06-28T00:04:51.932Z,18.57
2018-06-28T00:05:51.919Z,18.49
2018-06-28T00:06:51.938Z,18.47
2018-06-28T00:07:51.900Z,18.39
2018-06-28T00:08:51.944Z,18.36
2018-06-28T00:09:51.880Z,18.28
2018-06-28T00:10:51.868Z,18.25
2018-06-28T00:11:51.856Z,18.28
2018-06-28T00:12:51.889Z,18.21
2018-06-28T00:13:51.835Z,18.28
2018-06-28T00:14:51.825Z,18.31
2018-06-28T00:15:51.816Z,18.23
2018-06-28T00:16:51.804Z,18.31
2018-06-28T00:17:51.817Z,18.23
2018-06-28T00:18:51.782Z,18.23
2018-06-28T00:19:51.772Z,18.17
2018-06-28T00:20:51.762Z,18.10
2018-06-28T00:21:51.755Z,18.09
2018-06-28T00:22:51.776Z,17.92
2018-06-28T00:23:51.730Z,17.92
2018-06-28T00:24:51.719Z,17.83
2018-06-28T00:25:51.715Z,17.63
2018-06-28T00:26:51.713Z,17.63
2018-06-28T00:27:51.715Z,17.57
2018-06-28T00:28:51.677Z,17.49
2018-06-28T00:29:51.667Z,17.36
2018-06-28T00:30:51.656Z,17.33
2018-06-28T00:31:51.646Z,17.33
2018-06-28T00:32:51.681Z,17.17
2018-06-28T00:33:51.625Z,17.12
2018-06-28T00:34:51.615Z,17.09
2018-06-28T00:35:51.625Z,17.07
2018-06-28T00:36:51.597Z,16.99
2018-06-28T00:37:51.586Z,16.92
2018-06-28T00:38:51.599Z,16.88
2018-06-28T00:39:51.562Z,16.84
2018-06-28T00:40:51.551Z,16.82
2018-06-28T00:41:51.541Z,16.88
2018-06-28T00:42:51.530Z,16.82
2018-06-28T00:43:51.553Z,16.72
2018-06-28T00:44:51.508Z,16.73
2018-06-28T00:45:51.526Z,16.65
2018-06-28T00:46:51.487Z,16.62
2018-06-28T00:47:51.476Z,16.62
2018-06-28T00:48:51.467Z,16.60
2018-06-28T00:49:51.479Z,16.54
2018-06-28T00:50:51.454Z,16.55
2018-06-28T00:51:51.433Z,16.45
2018-06-28T00:52:51.423Z,16.42
2018-06-28T00:53:51.412Z,16.44
2018-06-28T00:54:51.428Z,16.44
2018-06-28T00:55:51.391Z,16.45
2018-06-28T00:56:51.381Z,16.45
2018-06-28T00:57:51.369Z,16.36
2018-06-28T00:58:51.374Z,16.33
2018-06-28T00:59:51.372Z,16.34
2018-06-28T01:00:51.342Z,16.27
2018-06-28T01:01:51.327Z,16.26
2018-06-28T01:02:51.316Z,16.27
2018-06-28T01:03:51.305Z,16.34
2018-06-28T01:04:51.317Z,16.17
2018-06-28T01:05:51.287Z,16.16
2018-06-28T01:06:51.272Z,16.10
2018-06-28T01:07:51.263Z,16.11
2018-06-28T01:08:51.271Z,16.01
2018-06-28T01:09:51.267Z,15.96
2018-06-28T01:10:51.228Z,15.89
2018-06-28T01:11:51.218Z,15.88
2018-06-28T01:12:51.210Z,15.86
2018-06-28T01:13:51.196Z,15.81
2018-06-28T01:14:51.209Z,15.78
2018-06-28T01:15:51.176Z,15.77
2018-06-28T01:16:51.167Z,15.77
2018-06-28T01:17:51.154Z,15.76
2018-06-28T01:18:51.142Z,15.80
2018-06-28T01:19:51.156Z,15.80
2018-06-28T01:20:51.127Z,15.81
2018-06-28T01:21:51.128Z,15.80
2018-06-28T01:22:51.099Z,15.67
2018-06-28T01:23:51.089Z,15.74
2018-06-28T01:24:51.105Z,15.64
2018-06-28T01:25:51.069Z,15.68
2018-06-28T01:26:51.056Z,15.67
2018-06-28T01:27:51.049Z,15.64
2018-06-28T01:28:51.035Z,15.62
2018-06-28T01:29:51.023Z,15.58
2018-06-28T01:30:51.036Z,15.51
2018-06-28T01:31:51.016Z,15.41
2018-06-28T01:32:50.991Z,15.37
2018-06-28T01:33:50.980Z,15.40
2018-06-28T01:34:50.969Z,15.46
2018-06-28T01:35:50.987Z,15.30
2018-06-28T01:36:50.949Z,15.30
2018-06-28T01:37:50.938Z,15.30
2018-06-28T01:38:50.926Z,15.25
2018-06-28T01:39:50.916Z,15.20
2018-06-28T01:40:50.909Z,15.15
2018-06-28T01:41:50.937Z,15.18
2018-06-28T01:42:50.884Z,15.11
2018-06-28T01:43:50.878Z,15.15
2018-06-28T01:44:50.868Z,15.05
2018-06-28T01:45:50.853Z,15.11
2018-06-28T01:46:50.928Z,15.04
2018-06-28T01:47:50.863Z,15.05
2018-06-28T01:48:50.820Z,15.07
2018-06-28T01:49:50.807Z,15.09
2018-06-28T01:50:50.797Z,15.04
2018-06-28T01:51:50.815Z,15.05
2018-06-28T01:52:50.775Z,15.03
2018-06-28T01:53:50.765Z,15.03
2018-06-28T01:54:50.765Z,15.01
2018-06-28T01:55:50.742Z,15.03
2018-06-28T01:56:50.760Z,14.94
2018-06-28T01:57:50.723Z,15.01
2018-06-28T01:58:50.710Z,15.00
2018-06-28T01:59:50.699Z,15.05
2018-06-28T02:00:50.690Z,15.04
2018-06-28T02:01:50.701Z,15.00
2018-06-28T02:02:50.669Z,15.00
2018-06-28T02:03:50.656Z,14.90
2018-06-28T02:04:50.645Z,14.86
2018-06-28T02:05:50.634Z,14.79
2018-06-28T02:06:50.647Z,14.83
2018-06-28T02:07:50.616Z,14.78
2018-06-28T02:08:50.604Z,14.80
2018-06-28T02:09:50.594Z,14.79
2018-06-28T02:10:50.581Z,14.79
2018-06-28T02:11:50.593Z,14.74
2018-06-28T02:12:50.559Z,14.80
2018-06-28T02:13:50.548Z,14.67
2018-06-28T02:14:50.539Z,14.63
2018-06-28T02:15:50.526Z,14.60
2018-06-28T02:16:50.544Z,14.63
2018-06-28T02:17:50.514Z,14.67
2018-06-28T02:18:50.496Z,14.63
2018-06-28T02:19:50.484Z,14.56
2018-06-28T02:20:50.474Z,14.64
2018-06-28T02:21:50.486Z,14.60
2018-06-28T02:22:50.452Z,14.52
2018-06-28T02:23:50.441Z,14.48
2018-06-28T02:24:50.431Z,14.57
2018-06-28T02:25:50.420Z,14.44
2018-06-28T02:26:50.439Z,14.49
2018-06-28T02:27:50.420Z,14.57
2018-06-28T02:28:50.388Z,14.44
2018-06-28T02:29:50.377Z,14.46
2018-06-28T02:30:50.369Z,14.41
2018-06-28T02:31:50.355Z,14.27
2018-06-28T02:32:50.369Z,14.24
2018-06-28T02:33:50.335Z,14.26
2018-06-28T02:34:50.323Z,14.27
2018-06-28T02:35:50.327Z,14.30
2018-06-28T02:36:50.302Z,14.26
2018-06-28T02:37:50.316Z,14.20
2018-06-28T02:38:50.285Z,14.26
2018-06-28T02:39:50.270Z,14.23
2018-06-28T02:40:50.263Z,14.24
2018-06-28T02:41:50.273Z,14.21
2018-06-28T02:42:50.239Z,14.12
2018-06-28T02:43:50.228Z,14.20
2018-06-28T02:44:50.216Z,14.16
2018-06-28T02:45:50.207Z,14.12
2018-06-28T02:46:50.220Z,14.20
2018-06-28T02:47:50.188Z,14.21
2018-06-28T02:48:50.173Z,14.06
2018-06-28T02:49:50.163Z,14.08
2018-06-28T02:50:50.168Z,14.04
2018-06-28T02:51:50.167Z,14.09
2018-06-28T02:52:50.130Z,14.06
2018-06-28T02:53:50.122Z,14.05
2018-06-28T02:54:50.110Z,14.04
2018-06-28T02:55:50.098Z,14.05
2018-06-28T02:56:50.113Z,14.09
2018-06-28T02:57:50.083Z,14.05
2018-06-28T02:58:50.067Z,13.90
2018-06-28T02:59:50.058Z,14.01
2018-06-28T03:00:50.054Z,14.04
2018-06-28T03:01:50.060Z,13.93
2018-06-28T03:02:50.024Z,13.96
2018-06-28T03:03:50.033Z,13.96
2018-06-28T03:04:50.003Z,13.91
2018-06-28T03:05:49.993Z,13.90
2018-06-28T03:06:50.010Z,13.81
2018-06-28T03:07:49.970Z,13.84
2018-06-28T03:08:49.966Z,13.83
2018-06-28T03:09:49.949Z,13.76
2018-06-28T03:10:49.938Z,13.73
2018-06-28T03:11:49.927Z,13.71
2018-06-28T03:12:49.941Z,13.80
2018-06-28T03:13:49.928Z,13.75
2018-06-28T03:14:49.894Z,13.71
2018-06-28T03:15:49.884Z,13.65
2018-06-28T03:16:49.875Z,13.66
2018-06-28T03:17:49.890Z,13.61
2018-06-28T03:18:49.850Z,13.73
2018-06-28T03:19:49.842Z,13.72
2018-06-28T03:20:49.832Z,13.75
2018-06-28T03:21:49.818Z,13.71
2018-06-28T03:22:49.807Z,13.71
2018-06-28T03:23:49.840Z,13.73
2018-06-28T03:24:49.784Z,13.66
2018-06-28T03:25:49.774Z,13.63
2018-06-28T03:26:49.784Z,13.57
2018-06-28T03:27:49.755Z,13.65
2018-06-28T03:28:49.764Z,13.55
2018-06-28T03:29:49.731Z,13.55
2018-06-28T03:30:49.777Z,13.57
2018-06-28T03:31:49.712Z,13.59
2018-06-28T03:32:49.702Z,13.63
2018-06-28T03:33:49.712Z,13.50
2018-06-28T03:34:49.677Z,13.61
2018-06-28T03:35:49.667Z,13.59
2018-06-28T03:36:49.671Z,13.59
2018-06-28T03:37:49.718Z,13.61
2018-06-28T03:38:49.658Z,13.59
2018-06-28T03:39:49.623Z,13.46
2018-06-28T03:40:49.615Z,13.50
2018-06-28T03:41:49.601Z,13.47
2018-06-28T03:42:49.592Z,13.50
2018-06-28T03:43:49.609Z,13.53
2018-06-28T03:44:49.568Z,13.50
2018-06-28T03:45:49.584Z,13.53
2018-06-28T03:46:49.546Z,13.44
2018-06-28T03:47:49.535Z,13.44
2018-06-28T03:48:49.524Z,13.47
2018-06-28T03:49:49.539Z,13.43
2018-06-28T03:50:49.502Z,13.44
2018-06-28T03:51:49.492Z,13.43
2018-06-28T03:52:49.484Z,13.41
2018-06-28T03:53:49.470Z,13.46
2018-06-28T03:54:49.482Z,13.39
2018-06-28T03:55:49.448Z,13.47
2018-06-28T03:56:49.437Z,13.41
2018-06-28T03:57:49.432Z,13.41
2018-06-28T03:58:49.416Z,13.38
2018-06-28T03:59:49.444Z,13.47
2018-06-28T04:00:49.393Z,13.39
2018-06-28T04:01:49.385Z,13.44
2018-06-28T04:02:49.373Z,13.41
2018-06-28T04:03:49.362Z,13.44
2018-06-28T04:04:49.372Z,13.44
2018-06-28T04:05:49.339Z,13.53
2018-06-28T04:06:49.329Z,13.47
2018-06-28T04:07:49.319Z,13.39
2018-06-28T04:08:49.308Z,13.41
2018-06-28T04:09:49.331Z,13.41
2018-06-28T04:10:49.285Z,13.38
2018-06-28T04:11:49.276Z,13.39
2018-06-28T04:12:49.276Z,13.46
2018-06-28T04:13:49.254Z,13.47
2018-06-28T04:14:49.263Z,13.46
2018-06-28T04:15:49.230Z,13.44
2018-06-28T04:16:49.243Z,13.46
2018-06-28T04:17:49.210Z,13.36
2018-06-28T04:18:49.197Z,13.44
2018-06-28T04:19:49.210Z,13.50
2018-06-28T04:20:49.179Z,13.38
2018-06-28T04:21:49.166Z,13.47
2018-06-28T04:22:49.171Z,13.38
2018-06-28T04:23:49.143Z,13.38
2018-06-28T04:24:49.156Z,13.39
2018-06-28T04:25:49.121Z,13.44
2018-06-28T04:26:49.110Z,13.39
2018-06-28T04:27:49.102Z,13.43
2018-06-28T04:28:49.090Z,13.44
2018-06-28T04:29:49.106Z,13.36
2018-06-28T04:30:49.069Z,13.41
2018-06-28T04:31:49.056Z,13.53
2018-06-28T04:32:49.047Z,13.54
2018-06-28T04:33:49.040Z,13.46
2018-06-28T04:34:49.047Z,13.43
2018-06-28T04:35:49.020Z,13.51
2018-06-28T04:36:49.002Z,13.53
2018-06-28T04:37:48.992Z,13.66
2018-06-28T04:38:48.982Z,13.66
2018-06-28T04:39:48.994Z,13.68
2018-06-28T04:40:48.961Z,13.69
2018-06-28T04:41:48.948Z,13.62
2018-06-28T04:42:48.937Z,13.71
2018-06-28T04:43:48.931Z,13.68
2018-06-28T04:44:48.940Z,13.73
2018-06-28T04:45:48.920Z,13.68
2018-06-28T04:46:48.896Z,13.65
2018-06-28T04:47:48.886Z,13.63
2018-06-28T04:48:48.872Z,13.71
2018-06-28T04:49:48.902Z,13.72
2018-06-28T04:50:48.852Z,13.73
2018-06-28T04:51:48.842Z,13.75
2018-06-28T04:52:48.831Z,13.73
2018-06-28T04:53:48.819Z,13.80
2018-06-28T04:54:48.836Z,13.76
2018-06-28T04:55:48.797Z,13.75
2018-06-28T04:56:48.787Z,13.86
2018-06-28T04:57:48.777Z,13.84
2018-06-28T04:58:48.771Z,13.84
2018-06-28T04:59:48.785Z,13.86
2018-06-28T05:00:48.745Z,13.86
2018-06-28T05:01:48.740Z,13.88
2018-06-28T05:02:48.722Z,13.86
2018-06-28T05:03:48.712Z,13.91
2018-06-28T05:04:48.724Z,14.02
2018-06-28T05:05:48.690Z,13.88
2018-06-28T05:06:48.680Z,13.94
2018-06-28T05:07:48.670Z,13.99
2018-06-28T05:08:48.664Z,14.04
2018-06-28T05:09:48.672Z,14.05
2018-06-28T05:10:48.637Z,14.02
2018-06-28T05:11:48.630Z,13.90
2018-06-28T05:12:48.618Z,13.99
2018-06-28T05:13:48.607Z,14.01
2018-06-28T05:14:48.624Z,14.05
2018-06-28T05:15:48.605Z,14.02
2018-06-28T05:16:48.574Z,13.94
2018-06-28T05:17:48.561Z,14.06
2018-06-28T05:18:48.570Z,14.04
2018-06-28T05:19:48.564Z,14.05
2018-06-28T05:20:48.531Z,14.08
2018-06-28T05:21:48.519Z,14.19
2018-06-28T05:22:48.509Z,14.12
2018-06-28T05:23:48.496Z,14.12
2018-06-28T05:24:48.513Z,14.19
2018-06-28T05:25:48.478Z,14.24
2018-06-28T05:26:48.465Z,14.27
2018-06-28T05:27:48.458Z,14.30
2018-06-28T05:28:48.444Z,14.36
2018-06-28T05:29:48.457Z,14.41
2018-06-28T05:30:48.425Z,14.44
2018-06-28T05:31:48.435Z,14.48
2018-06-28T05:32:48.401Z,14.53
2018-06-28T05:33:48.389Z,14.60
2018-06-28T05:34:48.443Z,14.64
2018-06-28T05:35:48.369Z,14.64
2018-06-28T05:36:48.357Z,14.63
2018-06-28T05:37:48.506Z,14.66
2018-06-28T05:38:48.336Z,14.74
2018-06-28T05:39:48.353Z,14.75
2018-06-28T05:40:48.315Z,14.80
2018-06-28T05:41:48.318Z,14.80
2018-06-28T05:42:48.293Z,14.86
2018-06-28T05:43:48.283Z,14.91
2018-06-28T05:44:48.295Z,15.01
2018-06-28T05:45:48.262Z,15.05
2018-06-28T05:46:48.257Z,15.00
2018-06-28T05:47:48.240Z,15.03
2018-06-28T05:48:48.231Z,15.12
2018-06-28T05:49:48.259Z,15.18
2018-06-28T05:50:48.208Z,15.13
2018-06-28T05:51:48.197Z,15.16
2018-06-28T05:52:48.188Z,15.13
2018-06-28T05:53:48.176Z,15.13
2018-06-28T05:54:48.191Z,15.31
2018-06-28T05:55:48.155Z,15.33
2018-06-28T05:56:48.144Z,15.38
2018-06-28T05:57:48.133Z,15.35
2018-06-28T05:58:48.122Z,15.53
2018-06-28T05:59:48.136Z,15.52
2018-06-28T06:00:48.104Z,15.59
2018-06-28T06:01:48.090Z,15.62
2018-06-28T06:02:48.080Z,15.66
2018-06-28T06:03:48.070Z,15.77
2018-06-28T06:04:48.101Z,15.80
2018-06-28T06:05:48.047Z,15.78
2018-06-28T06:06:48.039Z,15.89
2018-06-28T06:07:48.027Z,15.99
2018-06-28T06:08:48.019Z,15.99
2018-06-28T06:09:48.005Z,16.07
2018-06-28T06:10:48.019Z,16.18
2018-06-28T06:11:47.985Z,16.16
2018-06-28T06:12:47.976Z,16.23
2018-06-28T06:13:47.962Z,16.22
2018-06-28T06:14:47.951Z,16.22
2018-06-28T06:15:47.972Z,16.27
2018-06-28T06:16:47.929Z,16.23
2018-06-28T06:17:47.918Z,16.22
2018-06-28T06:18:47.907Z,16.30
2018-06-28T06:19:47.897Z,16.34
2018-06-28T06:20:47.915Z,16.37
2018-06-28T06:21:47.875Z,16.45
2018-06-28T06:22:47.864Z,16.44
2018-06-28T06:23:47.853Z,16.47
2018-06-28T06:24:47.842Z,16.57
2018-06-28T06:25:47.842Z,16.54
2018-06-28T06:26:47.845Z,16.51
2018-06-28T06:27:47.810Z,16.60
2018-06-28T06:28:47.801Z,16.73
2018-06-28T06:29:47.788Z,16.81
2018-06-28T06:30:47.777Z,16.95
2018-06-28T06:31:47.790Z,17.03
2018-06-28T06:32:47.755Z,17.06
2018-06-28T06:33:47.750Z,17.17
2018-06-28T06:34:47.738Z,17.17
2018-06-28T06:35:47.723Z,17.32
2018-06-28T06:36:47.736Z,17.36
2018-06-28T06:37:47.703Z,17.40
2018-06-28T06:38:47.700Z,17.47
2018-06-28T06:39:47.680Z,17.58
2018-06-28T06:40:47.671Z,17.63
2018-06-28T06:41:47.683Z,17.70
2018-06-28T06:42:47.647Z,17.68
2018-06-28T06:43:47.636Z,17.65
2018-06-28T06:44:47.625Z,17.73
2018-06-28T06:45:47.615Z,17.77
2018-06-28T06:46:47.745Z,17.87
2018-06-28T06:47:47.594Z,17.95
2018-06-28T06:48:47.630Z,18.01
2018-06-28T06:49:47.572Z,18.05
2018-06-28T06:50:47.561Z,18.19
2018-06-28T06:51:47.575Z,18.23
2018-06-28T06:52:47.544Z,18.29
2018-06-28T06:53:47.538Z,18.32
2018-06-28T06:54:47.519Z,18.42
2018-06-28T06:55:47.509Z,18.39
2018-06-28T06:56:47.541Z,18.35
2018-06-28T06:57:47.495Z,18.39
2018-06-28T06:58:47.478Z,18.50
2018-06-28T06:59:47.489Z,18.50
2018-06-28T07:00:47.458Z,18.62
2018-06-28T07:01:47.470Z,18.57
2018-06-28T07:02:47.436Z,18.75
2018-06-28T07:03:47.425Z,18.74
2018-06-28T07:04:47.415Z,18.76
2018-06-28T07:05:47.406Z,18.79
2018-06-28T07:06:47.419Z,18.78
2018-06-28T07:07:47.383Z,18.87
2018-06-28T07:08:47.372Z,18.94
2018-06-28T07:09:47.384Z,18.96
2018-06-28T07:10:47.352Z,19.09
2018-06-28T07:11:47.366Z,19.02
2018-06-28T07:12:47.330Z,19.17
2018-06-28T07:13:47.321Z,19.12
2018-06-28T07:14:47.310Z,19.20
2018-06-28T07:15:47.304Z,19.20
2018-06-28T07:16:47.314Z,19.15
2018-06-28T07:17:47.281Z,19.20
2018-06-28T07:18:47.267Z,19.25
2018-06-28T07:19:47.257Z,19.35
2018-06-28T07:20:47.246Z,19.31
2018-06-28T07:21:47.259Z,19.38
2018-06-28T07:22:47.282Z,19.42
2018-06-28T07:23:47.214Z,19.50
2018-06-28T07:24:47.203Z,19.47
2018-06-28T07:25:47.197Z,19.45
2018-06-28T07:26:47.205Z,19.55
2018-06-28T07:27:47.253Z,19.62
2018-06-28T07:28:47.165Z,19.60
2018-06-28T07:29:47.166Z,19.68
2018-06-28T07:30:47.138Z,19.78
2018-06-28T07:31:47.152Z,19.87
2018-06-28T07:32:47.132Z,19.86
2018-06-28T07:33:47.105Z,19.87
2018-06-28T07:34:47.095Z,20.00
2018-06-28T07:35:47.090Z,20.22
2018-06-28T07:36:47.100Z,20.31
2018-06-28T07:37:47.063Z,20.30
2018-06-28T07:38:47.050Z,20.37
2018-06-28T07:39:47.044Z,20.41
2018-06-28T07:40:47.029Z,20.53
2018-06-28T07:41:47.042Z,20.63
2018-06-28T07:42:47.019Z,20.69
2018-06-28T07:43:46.997Z,20.81
2018-06-28T07:44:46.992Z,20.82
2018-06-28T07:45:46.980Z,20.87
2018-06-28T07:46:47.049Z,20.96
2018-06-28T07:47:47.090Z,21.00
2018-06-28T07:48:46.942Z,21.06
2018-06-28T07:49:47.097Z,21.15
2018-06-28T07:50:47.079Z,21.21
2018-06-28T07:51:46.932Z,21.16
2018-06-28T07:52:46.897Z,21.26
2018-06-28T07:53:46.887Z,21.30
2018-06-28T07:54:46.878Z,21.31
2018-06-28T07:55:46.983Z,21.28
2018-06-28T07:56:46.878Z,21.34
2018-06-28T07:57:46.845Z,21.38
2018-06-28T07:58:46.833Z,21.45
2018-06-28T07:59:46.822Z,21.55
2018-06-28T08:00:46.814Z,21.56
2018-06-28T08:01:46.825Z,21.61
2018-06-28T08:02:46.790Z,21.68
2018-06-28T08:03:46.783Z,21.79
2018-06-28T08:04:46.772Z,21.83
2018-06-28T08:05:46.782Z,21.86
2018-06-28T08:06:46.772Z,21.83
2018-06-28T08:07:46.737Z,21.94
2018-06-28T08:08:46.729Z,21.93
2018-06-28T08:09:46.750Z,22.04
2018-06-28T08:10:46.706Z,22.05
2018-06-28T08:11:46.719Z,22.14
2018-06-28T08:12:46.690Z,22.05
2018-06-28T08:13:46.676Z,22.12
2018-06-28T08:14:46.664Z,22.15
2018-06-28T08:15:46.655Z,22.17
2018-06-28T08:16:46.665Z,22.20
2018-06-28T08:17:46.632Z,22.29
2018-06-28T08:18:46.623Z,22.35
2018-06-28T08:19:46.613Z,22.36
2018-06-28T08:20:46.602Z,22.42
2018-06-28T08:21:46.612Z,22.31
2018-06-28T08:22:46.578Z,22.56
2018-06-28T08:23:46.570Z,22.46
2018-06-28T08:24:46.558Z,22.48
2018-06-28T08:25:46.552Z,22.52
2018-06-28T08:26:46.559Z,22.56
2018-06-28T08:27:46.525Z,22.64
2018-06-28T08:28:46.530Z,22.69
2018-06-28T08:29:46.504Z,22.70
2018-06-28T08:30:46.495Z,22.78
2018-06-28T08:31:46.509Z,22.85
2018-06-28T08:32:46.472Z,22.82
2018-06-28T08:33:46.461Z,22.84
2018-06-28T08:34:46.451Z,22.99
2018-06-28T08:35:46.466Z,22.94
2018-06-28T08:36:46.455Z,23.01
2018-06-28T08:37:46.419Z,23.11
2018-06-28T08:38:46.410Z,23.01
2018-06-28T08:39:46.397Z,23.11
2018-06-28T08:40:46.388Z,23.07
2018-06-28T08:41:46.402Z,23.22
2018-06-28T08:42:46.369Z,23.21
2018-06-28T08:43:46.355Z,23.31
2018-06-28T08:44:46.345Z,23.34
2018-06-28T08:45:46.335Z,23.34
2018-06-28T08:46:46.347Z,23.41
2018-06-28T08:47:46.313Z,23.45
2018-06-28T08:48:46.306Z,23.44
2018-06-28T08:49:46.291Z,23.50
2018-06-28T08:50:46.281Z,23.56
2018-06-28T08:51:46.313Z,23.52
2018-06-28T08:52:46.260Z,23.69
2018-06-28T08:53:46.250Z,23.63
2018-06-28T08:54:46.245Z,23.64
2018-06-28T08:55:46.228Z,23.64
2018-06-28T08:56:46.242Z,23.67
2018-06-28T08:57:46.247Z,23.67
2018-06-28T08:58:46.196Z,23.67
2018-06-28T08:59:46.186Z,23.64
2018-06-28T09:00:46.178Z,23.71
2018-06-28T09:01:46.210Z,23.77
2018-06-28T09:02:46.156Z,23.79
2018-06-28T09:03:46.143Z,23.86
2018-06-28T09:04:46.141Z,23.82
2018-06-28T09:05:46.148Z,23.90
2018-06-28T09:06:46.136Z,23.90
2018-06-28T09:07:46.105Z,23.93
2018-06-28T09:08:46.096Z,23.94
2018-06-28T09:09:46.079Z,24.02
2018-06-28T09:10:46.068Z,24.08
2018-06-28T09:11:46.082Z,24.14
2018-06-28T09:12:46.049Z,24.26
2018-06-28T09:13:46.037Z,24.19
2018-06-28T09:14:46.036Z,24.21
2018-06-28T09:15:46.015Z,24.24
2018-06-28T09:16:46.028Z,24.19
2018-06-28T09:17:45.995Z,24.27
2018-06-28T09:18:45.996Z,24.33
2018-06-28T09:19:45.975Z,24.41
2018-06-28T09:20:45.962Z,24.52
2018-06-28T09:21:45.988Z,24.59
2018-06-28T09:22:46.114Z,24.60
2018-06-28T09:23:45.930Z,24.79
2018-06-28T09:24:45.933Z,24.79
2018-06-28T09:25:45.909Z,24.90
2018-06-28T09:26:45.923Z,24.98
2018-06-28T09:27:45.888Z,25.01
2018-06-28T09:28:45.877Z,25.08
2018-06-28T09:29:45.867Z,25.17
2018-06-28T09:30:45.857Z,25.20
2018-06-28T09:31:45.870Z,25.27
2018-06-28T09:32:45.837Z,25.36
2018-06-28T09:33:45.824Z,25.45
2018-06-28T09:34:45.830Z,25.42
2018-06-28T09:35:45.817Z,25.38
2018-06-28T09:36:45.817Z,25.41
2018-06-28T09:37:45.785Z,25.41
2018-06-28T09:38:45.772Z,25.38
2018-06-28T09:39:45.764Z,25.42
2018-06-28T09:40:45.751Z,25.44
2018-06-28T09:41:45.764Z,25.48
2018-06-28T09:42:45.733Z,25.44
2018-06-28T09:43:45.720Z,25.38
2018-06-28T09:44:45.708Z,25.36
2018-06-28T09:45:45.699Z,25.45
2018-06-28T09:46:45.720Z,25.48
2018-06-28T09:47:45.677Z,25.31
2018-06-28T09:48:45.714Z,25.38
2018-06-28T09:49:45.656Z,25.42
2018-06-28T09:50:45.646Z,25.51
2018-06-28T09:51:45.694Z,25.54
2018-06-28T09:52:45.627Z,25.69
2018-06-28T09:53:45.616Z,25.78
2018-06-28T09:54:45.640Z,26.01
2018-06-28T09:55:45.594Z,26.04
2018-06-28T09:56:45.607Z,26.16
2018-06-28T09:57:45.576Z,26.27
2018-06-28T09:58:45.594Z,26.27
2018-06-28T09:59:45.555Z,26.27
2018-06-28T10:00:45.540Z,26.36
2018-06-28T10:01:45.557Z,26.35
2018-06-28T10:02:45.518Z,26.39
2018-06-28T10:03:45.508Z,26.28
2018-06-28T10:04:45.498Z,26.38
2018-06-28T10:05:45.492Z,26.47
2018-06-28T10:06:45.508Z,26.46
2018-06-28T10:07:45.484Z,26.47
2018-06-28T10:08:45.456Z,26.53
2018-06-28T10:09:45.447Z,26.53
2018-06-28T10:10:45.434Z,26.71
2018-06-28T10:11:45.447Z,26.76
2018-06-28T10:12:45.412Z,26.83
2018-06-28T10:13:45.405Z,26.81
2018-06-28T10:14:45.451Z,26.98
2018-06-28T10:15:45.383Z,26.94
2018-06-28T10:16:45.394Z,26.98
2018-06-28T10:17:45.363Z,26.97
2018-06-28T10:18:45.350Z,27.02
2018-06-28T10:19:45.347Z,27.25
2018-06-28T10:20:45.344Z,27.38
2018-06-28T10:21:45.343Z,27.65
2018-06-28T10:22:45.307Z,27.96
2018-06-28T10:23:45.300Z,28.42
2018-06-28T10:24:45.314Z,29.05
2018-06-28T10:25:45.278Z,29.70
2018-06-28T10:26:45.294Z,30.53
2018-06-28T10:27:45.255Z,31.09
2018-06-28T10:28:45.245Z,31.99
2018-06-28T10:29:45.237Z,32.78
2018-06-28T10:30:45.243Z,33.24
2018-06-28T10:31:45.243Z,33.68
2018-06-28T10:32:45.263Z,34.30
2018-06-28T10:33:45.193Z,34.84
2018-06-28T10:34:45.184Z,35.44
2018-06-28T10:35:45.174Z,36.19
2018-06-28T10:36:45.188Z,36.64
2018-06-28T10:37:45.159Z,36.93
2018-06-28T10:38:45.144Z,37.21
2018-06-28T10:39:45.134Z,37.62
2018-06-28T10:40:45.147Z,38.25
2018-06-28T10:41:45.138Z,38.75
2018-06-28T10:42:45.105Z,39.27
2018-06-28T10:43:45.103Z,39.51
2018-06-28T10:44:45.120Z,39.88
2018-06-28T10:45:45.078Z,40.44
2018-06-28T10:46:45.094Z,40.80
2018-06-28T10:47:45.062Z,41.19
2018-06-28T10:48:45.058Z,41.63
2018-06-28T10:49:45.041Z,41.73
2018-06-28T10:50:45.036Z,41.90
2018-06-28T10:51:45.055Z,42.33
2018-06-28T10:52:45.019Z,42.60
2018-06-28T10:53:45.018Z,42.89
2018-06-28T10:54:45.000Z,43.01
2018-06-28T10:55:44.992Z,42.76
2018-06-28T10:56:45.009Z,41.48
2018-06-28T10:57:44.974Z,39.96
2018-06-28T10:58:44.966Z,40.16
2018-06-28T10:59:44.958Z,39.73
2018-06-28T11:00:44.950Z,40.34
2018-06-28T11:01:45.042Z,40.68
2018-06-28T11:02:44.932Z,41.31
2018-06-28T11:03:44.940Z,41.39
2018-06-28T11:04:44.917Z,39.81
2018-06-28T11:05:44.914Z,38.18
2018-06-28T11:06:44.928Z,36.78
2018-06-28T11:07:44.892Z,36.67
2018-06-28T11:08:44.882Z,35.24
2018-06-28T11:09:44.875Z,33.89
2018-06-28T11:10:44.868Z,33.07
2018-06-28T11:11:44.879Z,32.43
2018-06-28T11:12:44.871Z,31.82
2018-06-28T11:13:44.844Z,31.88
2018-06-28T11:14:44.832Z,33.29
2018-06-28T11:15:44.824Z,34.37
2018-06-28T11:16:44.845Z,35.66
2018-06-28T11:17:44.801Z,36.62
2018-06-28T11:18:44.793Z,37.84
2018-06-28T11:19:44.783Z,38.90
2018-06-28T11:20:44.775Z,39.80
2018-06-28T11:21:44.794Z,40.56
2018-06-28T11:22:44.757Z,40.83
2018-06-28T11:23:44.760Z,41.35
2018-06-28T11:24:44.741Z,41.57
2018-06-28T11:25:44.736Z,42.15
2018-06-28T11:26:44.834Z,41.46
2018-06-28T11:27:44.716Z,40.51
2018-06-28T11:28:44.710Z,41.16
2018-06-28T11:29:44.702Z,41.67
2018-06-28T11:30:44.696Z,42.21
2018-06-28T11:31:44.708Z,42.14
2018-06-28T11:32:44.675Z,41.89
2018-06-28T11:33:44.709Z,40.79
2018-06-28T11:34:44.658Z,39.59
2018-06-28T11:35:44.652Z,38.56
2018-06-28T11:36:44.664Z,38.09
2018-06-28T11:37:44.632Z,36.96
2018-06-28T11:38:44.623Z,36.15
2018-06-28T11:39:44.614Z,35.15
2018-06-28T11:40:44.607Z,34.60
2018-06-28T11:41:44.618Z,33.57
2018-06-28T11:42:44.587Z,32.77
2018-06-28T11:43:44.591Z,32.13
2018-06-28T11:44:44.569Z,31.79
2018-06-28T11:45:44.567Z,32.41
2018-06-28T11:46:44.573Z,32.91
2018-06-28T11:47:44.544Z,32.53
2018-06-28T11:48:44.532Z,33.12
2018-06-28T11:49:44.521Z,34.83
2018-06-28T11:50:44.511Z,35.71
2018-06-28T11:51:44.524Z,36.65
2018-06-28T11:52:44.491Z,37.35
2018-06-28T11:53:44.507Z,37.99
2018-06-28T11:54:44.474Z,37.21
2018-06-28T11:55:44.464Z,36.72
2018-06-28T11:56:44.486Z,36.49
2018-06-28T11:57:44.444Z,35.74
2018-06-28T11:58:44.435Z,36.87
2018-06-28T11:59:44.428Z,37.87
2018-06-28T12:00:44.417Z,38.47
2018-06-28T12:01:44.432Z,37.27
2018-06-28T12:02:44.398Z,37.49
2018-06-28T12:03:44.389Z,38.90
2018-06-28T12:04:44.380Z,40.10
2018-06-28T12:05:44.373Z,41.01
2018-06-28T12:06:44.386Z,41.90
2018-06-28T12:07:44.359Z,42.61
2018-06-28T12:08:44.343Z,43.26
2018-06-28T12:09:44.347Z,43.86
2018-06-28T12:10:44.347Z,44.21
2018-06-28T12:11:44.342Z,44.76
2018-06-28T12:12:44.308Z,44.92
2018-06-28T12:13:44.302Z,44.82
2018-06-28T12:14:44.295Z,44.44
2018-06-28T12:15:44.295Z,44.49
2018-06-28T12:16:44.322Z,44.31
2018-06-28T12:17:44.269Z,44.46
2018-06-28T12:18:44.290Z,44.56
2018-06-28T12:19:44.270Z,44.67
2018-06-28T12:20:44.249Z,43.02
2018-06-28T12:21:44.262Z,42.64
2018-06-28T12:22:44.239Z,43.44
2018-06-28T12:23:44.227Z,43.82
2018-06-28T12:24:44.223Z,44.39
2018-06-28T12:25:44.201Z,43.10
2018-06-28T12:26:44.198Z,41.39
2018-06-28T12:27:44.220Z,42.08
2018-06-28T12:28:44.177Z,41.04
2018-06-28T12:29:44.173Z,39.62
2018-06-28T12:30:44.157Z,39.36
2018-06-28T12:31:44.149Z,39.50
2018-06-28T12:32:44.166Z,38.92
2018-06-28T12:33:44.136Z,40.15
2018-06-28T12:34:44.123Z,41.10
2018-06-28T12:35:44.117Z,41.96
2018-06-28T12:36:44.121Z,42.38
2018-06-28T12:37:44.124Z,41.50
2018-06-28T12:38:44.088Z,41.48
2018-06-28T12:39:44.079Z,42.52
2018-06-28T12:40:44.070Z,43.13
2018-06-28T12:41:44.062Z,43.53
2018-06-28T12:42:44.087Z,44.10
2018-06-28T12:43:44.047Z,43.84
2018-06-28T12:44:44.042Z,44.13
2018-06-28T12:45:44.028Z,44.28
2018-06-28T12:46:44.037Z,44.79
2018-06-28T12:47:44.034Z,45.46
2018-06-28T12:48:44.003Z,45.77
2018-06-28T12:49:44.000Z,45.63
2018-06-28T12:50:44.001Z,44.49
2018-06-28T12:51:43.979Z,44.92
2018-06-28T12:52:43.994Z,44.94